Time;durP1;ratioP1;P1;durP2;ratioP2;P2;SDS_P1;SDS_P2;PMS_P1;PMS_P2;Temp;Humidity;BMP_temperature;BMP_pressure;BME280_temperature;BME280_humidity;BME280_pressure;Samples;Min_cycle;Max_cycle;Signal;HPM_P1;HPM_P2
2022/06/29 00:00:32;;;;;;;;;2.00;1.00;;;;;20.18;100.00;101006.63;4992300;28;46582;-74
2022/06/29 00:02:59;;;;;;;;;2.33;1.00;;;;;20.16;100.00;101017.19;4993768;28;45682;-75
2022/06/29 00:05:26;;;;;;;;;2.00;2.00;;;;;20.13;100.00;101020.53;4994221;28;45907;-75
2022/06/29 00:07:53;;;;;;;;;1.00;1.00;;;;;20.05;100.00;101013.50;4975300;28;46125;-76
2022/06/29 00:10:20;;;;;;;;;1.00;1.00;;;;;20.05;100.00;101019.91;4976813;28;46734;-76
2022/06/29 00:12:47;;;;;;;;;2.00;2.00;;;;;20.01;100.00;101017.91;4993422;28;45515;-75
2022/06/29 00:15:13;;;;;;;;;3.33;2.00;;;;;19.99;100.00;101020.97;4976049;28;45773;-74
2022/06/29 00:17:39;;;;;;;;;3.00;2.00;;;;;19.93;100.00;101011.72;4985372;28;45820;-73
2022/06/29 00:20:06;;;;;;;;;2.00;1.00;;;;;19.96;100.00;101015.09;4985621;28;47288;-75
2022/06/29 00:22:33;;;;;;;;;2.00;2.00;;;;;19.91;100.00;101013.94;4989923;28;45419;-74
2022/06/29 00:24:58;;;;;;;;;5.00;3.00;;;;;19.89;100.00;101015.31;4990334;28;45714;-75
2022/06/29 00:27:24;;;;;;;;;1.00;1.00;;;;;19.75;100.00;100998.19;4993445;28;45933;-73
2022/06/29 00:29:50;;;;;;;;;3.00;2.00;;;;;19.84;100.00;101016.09;4970700;28;46587;-76
2022/06/29 00:32:16;;;;;;;;;2.00;1.00;;;;;19.79;100.00;101018.84;4988041;28;45764;-74
2022/06/29 00:34:42;;;;;;;;;3.67;3.00;;;;;19.80;100.00;101022.47;4975675;28;45931;-74
2022/06/29 00:37:08;;;;;;;;;2.33;1.00;;;;;19.76;100.00;101019.34;4992902;28;45583;-76
2022/06/29 00:39:34;;;;;;;;;2.00;2.00;;;;;19.74;100.00;101013.19;4992856;28;45764;-74
2022/06/29 00:42:00;;;;;;;;;1.33;1.33;;;;;19.73;100.00;101017.06;4984199;28;45389;-73
2022/06/29 00:44:25;;;;;;;;;2.67;2.00;;;;;19.72;100.00;101015.41;4992895;28;45668;-75
2022/06/29 00:46:54;;;;;;;;;1.33;1.33;;;;;19.71;100.00;101003.41;4988508;28;45602;-74
2022/06/29 00:49:23;;;;;;;;;2.00;2.00;;;;;19.67;100.00;101007.84;4999427;28;47210;-75
2022/06/29 00:51:54;;;;;;;;;1.00;1.00;;;;;19.63;100.00;101003.09;4997834;28;45546;-75
2022/06/29 00:54:25;;;;;;;;;1.67;1.00;;;;;19.66;100.00;100999.78;4992384;28;45735;-74
2022/06/29 00:56:51;;;;;;;;;4.00;3.33;;;;;19.63;100.00;100995.56;4975807;28;45506;-75
2022/06/29 00:59:24;;;;;;;;;1.00;1.00;;;;;19.62;100.00;101007.78;4991862;28;45866;-75
2022/06/29 01:01:50;;;;;;;;;2.00;2.00;;;;;19.55;100.00;100996.88;4991401;28;45555;-75
2022/06/29 01:04:16;;;;;;;;;2.00;2.00;;;;;19.57;100.00;101002.19;4991061;28;45989;-76
2022/06/29 01:06:42;;;;;;;;;2.67;2.33;;;;;19.53;100.00;100990.72;4975009;28;45682;-74
2022/06/29 01:09:08;;;;;;;;;2.00;2.00;;;;;19.57;100.00;101000.22;4979464;28;46614;-75
2022/06/29 01:11:34;;;;;;;;;2.00;2.00;;;;;19.53;100.00;100999.06;4979236;28;45346;-75
2022/06/29 01:14:01;;;;;;;;;3.00;2.33;;;;;19.46;100.00;100979.00;4992692;28;45609;-76
2022/06/29 01:16:27;;;;;;;;;4.00;2.67;;;;;19.54;100.00;100997.97;4989096;28;45794;-73
2022/06/29 01:18:53;;;;;;;;;3.00;2.00;;;;;19.54;100.00;100997.97;4992026;28;46554;-75
2022/06/29 01:21:20;;;;;;;;;2.33;2.33;;;;;19.53;100.00;101001.84;4974709;28;45863;-74
2022/06/29 01:23:46;;;;;;;;;2.00;2.00;;;;;19.53;100.00;100996.28;4973549;28;45479;-75
2022/06/29 01:26:13;;;;;;;;;5.33;2.00;;;;;19.50;100.00;101001.56;4976289;28;46445;-75
2022/06/29 01:28:44;;;;;;;;;3.00;3.00;;;;;19.48;100.00;101004.59;4991933;28;45471;-74
2022/06/29 01:31:18;;;;;;;;;3.67;2.67;;;;;19.44;100.00;100991.47;4977683;28;45690;-74
2022/06/29 01:33:44;;;;;;;;;2.00;2.00;;;;;19.44;100.00;101000.66;4986050;28;45545;-74
2022/06/29 01:36:11;;;;;;;;;2.00;2.00;;;;;19.44;100.00;100997.03;4980678;28;45749;-75
2022/06/29 01:38:38;;;;;;;;;3.00;3.00;;;;;19.42;100.00;100994.53;4975031;28;46927;-73
2022/06/29 01:41:12;;;;;;;;;2.33;2.33;;;;;19.37;100.00;100994.44;5103990;27;45764;-72
2022/06/29 01:43:38;;;;;;;;;4.00;3.33;;;;;19.45;100.00;100999.56;5085765;27;45837;-71
2022/06/29 01:46:04;;;;;;;;;2.33;1.33;;;;;19.42;100.00;100997.31;5059717;28;45741;-73
2022/06/29 01:48:30;;;;;;;;;2.00;2.00;;;;;19.40;100.00;101002.28;5086624;27;45616;-71
2022/06/29 01:50:57;;;;;;;;;1.33;1.33;;;;;19.38;100.00;101002.53;5087193;27;45820;-71
2022/06/29 01:53:23;;;;;;;;;2.00;2.00;;;;;19.34;100.00;101000.53;5080694;27;45541;-72
2022/06/29 01:55:48;;;;;;;;;4.00;4.00;;;;;19.32;100.00;101002.75;5077830;27;45433;-72
2022/06/29 01:58:14;;;;;;;;;2.00;2.00;;;;;19.28;100.00;100993.25;5055131;28;45498;-73
2022/06/29 02:00:40;;;;;;;;;2.67;2.67;;;;;19.25;100.00;100993.78;5065733;27;47250;-71
2022/06/29 02:03:06;;;;;;;;;2.33;2.33;;;;;19.24;100.00;101004.06;5088027;27;45816;-71
2022/06/29 02:05:32;;;;;;;;;3.00;3.00;;;;;19.19;100.00;101002.06;5087928;27;45384;-72
2022/06/29 02:07:57;;;;;;;;;1.00;1.00;;;;;19.16;100.00;100997.03;5088544;27;45584;-71
2022/06/29 02:10:23;;;;;;;;;3.33;3.33;;;;;19.10;100.00;100992.53;5067666;28;46470;-73
2022/06/29 02:12:48;;;;;;;;;2.33;2.33;;;;;19.08;100.00;100989.13;5079200;27;45944;-73
2022/06/29 02:15:14;;;;;;;;;1.00;1.00;;;;;19.05;100.00;100984.94;5066917;27;45665;-73
2022/06/29 02:17:39;;;;;;;;;0.00;0.00;;;;;19.01;100.00;100983.78;5079355;27;45773;-73
2022/06/29 02:20:06;;;;;;;;;2.00;1.33;;;;;18.99;100.00;100985.97;5097126;27;48044;-74
2022/06/29 02:22:31;;;;;;;;;2.00;2.00;;;;;18.97;100.00;100981.78;5089073;27;45341;-73
2022/06/29 02:24:57;;;;;;;;;2.33;0.67;;;;;18.92;100.00;100990.88;5081639;27;45303;-72
2022/06/29 02:27:22;;;;;;;;;2.00;1.00;;;;;18.93;100.00;100988.97;5089311;27;45406;-71
2022/06/29 02:29:47;;;;;;;;;2.33;1.00;;;;;18.90;100.00;100986.69;5089167;27;46180;-72
2022/06/29 02:34:57;;;;;;;;;2.00;2.00;;;;;18.84;100.00;100989.38;5086518;27;45492;-71
2022/06/29 02:37:22;;;;;;;;;3.33;1.33;;;;;18.79;100.00;100986.53;5076822;27;45412;-70
2022/06/29 02:39:48;;;;;;;;;2.00;2.00;;;;;18.78;100.00;100981.25;5068326;28;46152;-71
2022/06/29 02:42:14;;;;;;;;;1.00;1.00;;;;;18.74;100.00;100977.28;5068153;28;45731;-71
2022/06/29 02:44:41;;;;;;;;;3.00;2.33;;;;;18.74;100.00;100985.63;5068031;27;45770;-71
2022/06/29 02:47:07;;;;;;;;;2.33;2.33;;;;;18.70;100.00;100979.75;5079560;27;45807;-71
2022/06/29 02:49:33;;;;;;;;;1.33;1.33;;;;;18.67;100.00;100985.84;5072388;27;48229;-72
2022/06/29 02:51:59;;;;;;;;;3.67;2.33;;;;;18.67;100.00;100977.50;5077933;27;45705;-73
2022/06/29 02:54:24;;;;;;;;;3.67;2.00;;;;;18.64;100.00;100978.00;5072709;27;45343;-72
2022/06/29 02:56:50;;;;;;;;;2.00;2.00;;;;;18.61;100.00;100984.09;5072879;27;45780;-70
2022/06/29 02:59:16;;;;;;;;;1.00;1.00;;;;;18.60;100.00;100982.38;5054918;28;47261;-71
2022/06/29 03:01:41;;;;;;;;;3.00;1.00;;;;;18.56;100.00;100982.03;5055971;28;45698;-70
2022/06/29 03:04:07;;;;;;;;;1.00;1.00;;;;;18.51;100.00;100980.03;5072875;27;45312;-71
2022/06/29 03:06:32;;;;;;;;;1.67;1.67;;;;;18.51;100.00;100987.53;5052288;28;46173;-72
2022/06/29 03:08:58;;;;;;;;;2.33;2.33;;;;;18.43;100.00;100976.84;5073109;27;46539;-72
2022/06/29 03:11:23;;;;;;;;;2.33;0.67;;;;;18.39;100.00;100981.28;5074215;27;45683;-71
2022/06/29 03:13:49;;;;;;;;;1.33;1.33;;;;;18.31;100.00;100963.94;5052073;27;45399;-71
2022/06/29 03:16:15;;;;;;;;;1.00;1.00;;;;;18.38;100.00;100983.19;5066720;27;45388;-73
2022/06/29 03:18:40;;;;;;;;;3.00;2.00;;;;;18.33;100.00;100977.56;5073675;27;45717;-71
2022/06/29 03:21:06;;;;;;;;;2.67;1.00;;;;;18.33;100.00;100981.19;5073977;27;45947;-73
2022/06/29 03:23:31;;;;;;;;;2.00;2.00;;;;;18.31;100.00;100979.78;5074135;27;45498;-73
2022/06/29 03:25:57;;;;;;;;;3.33;2.00;;;;;18.25;100.00;100975.22;5073947;28;45766;-73
2022/06/29 03:28:22;;;;;;;;;2.00;2.00;;;;;18.28;100.00;100985.84;5068360;27;45447;-72
2022/06/29 03:30:48;;;;;;;;;2.67;1.67;;;;;18.28;100.00;100985.84;5054137;28;45360;-72
2022/06/29 03:33:13;;;;;;;;;2.33;2.00;;;;;18.28;100.00;100980.28;5072353;27;45372;-71
2022/06/29 03:35:39;;;;;;;;;2.00;2.00;;;;;18.25;100.00;100978.00;5068457;27;45550;-73
2022/06/29 03:38:04;;;;;;;;;3.00;2.00;;;;;18.28;100.00;100971.94;5070287;28;46701;-72
2022/06/29 03:40:30;;;;;;;;;2.67;2.33;;;;;18.26;100.00;100972.19;5070104;27;45409;-72
2022/06/29 03:42:56;;;;;;;;;2.00;2.00;;;;;18.25;100.00;100962.19;5072427;28;45574;-72
2022/06/29 03:45:22;;;;;;;;;2.00;2.00;;;;;18.30;100.00;100966.97;5073708;27;45798;-74
2022/06/29 03:47:48;;;;;;;;;1.33;1.33;;;;;18.29;100.00;100966.16;5073317;27;46055;-72
2022/06/29 03:50:14;;;;;;;;;1.00;1.00;;;;;18.27;100.00;100973.88;5073554;27;45771;-71
2022/06/29 03:52:39;;;;;;;;;3.67;2.67;;;;;18.32;100.00;100973.09;5056376;28;45786;-72
2022/06/29 03:55:06;;;;;;;;;2.00;2.00;;;;;18.33;100.00;100964.50;5073927;27;45367;-73
2022/06/29 03:57:31;;;;;;;;;2.00;2.00;;;;;18.36;100.00;100977.06;5065549;27;46949;-73
2022/06/29 03:59:57;;;;;;;;;3.00;3.00;;;;;18.46;100.00;100970.81;5073545;27;45660;-72
2022/06/29 04:02:23;;;;;;;;;3.67;3.67;;;;;18.57;100.00;100967.06;5072574;27;45570;-75
2022/06/29 04:04:48;;;;;;;;;2.67;2.67;;;;;18.77;100.00;100974.00;5073010;27;45512;-72
2022/06/29 04:07:14;;;;;;;;;3.00;3.00;;;;;18.95;100.00;100973.72;5072565;27;45844;-76
2022/06/29 04:09:39;;;;;;;;;7.67;4.33;;;;;19.04;100.00;100977.72;5060867;27;45750;-73
2022/06/29 04:12:05;;;;;;;;;2.33;2.33;;;;;19.22;100.00;100990.44;5069802;27;45430;-73
2022/06/29 04:14:30;;;;;;;;;4.00;3.00;;;;;19.56;100.00;100978.25;5073744;27;45975;-71
2022/06/29 04:16:58;;;;;;;;;3.67;3.00;;;;;19.99;100.00;100975.59;5072855;27;45733;-73
2022/06/29 04:19:24;;;;;;;;;4.00;3.67;;;;;20.38;100.00;100959.41;5055808;28;45376;-74
2022/06/29 04:21:50;;;;;;;;;3.00;3.00;;;;;20.97;100.00;100974.22;5072901;27;45720;-74
2022/06/29 04:24:16;;;;;;;;;3.00;3.00;;;;;21.48;100.00;100954.84;5054938;28;46005;-74
2022/06/29 04:26:42;;;;;;;;;5.50;3.00;;;;;22.02;100.00;100959.06;5049923;28;48524;-73
2022/06/29 04:29:08;;;;;;;;;3.00;3.00;;;;;22.55;100.00;100952.28;5056515;27;45376;-77
2022/06/29 04:31:33;;;;;;;;;5.33;4.33;;;;;23.09;100.00;100951.50;5062226;27;45374;-73
2022/06/29 04:34:00;;;;;;;;;4.67;3.67;;;;;23.66;100.00;100962.31;5051232;28;45762;-73
2022/06/29 04:36:26;;;;;;;;;3.33;3.00;;;;;24.22;100.00;100948.94;5061817;27;45343;-73
2022/06/29 04:38:53;;;;;;;;;4.67;4.67;;;;;24.79;100.00;100941.59;5060725;27;45348;-74
2022/06/29 04:41:19;;;;;;;;;7.33;6.00;;;;;25.35;100.00;100944.78;5061445;27;45548;-71
2022/06/29 04:43:46;;;;;;;;;4.67;4.67;;;;;25.92;100.00;100941.88;5059590;27;45469;-77
2022/06/29 04:46:21;;;;;;;;;4.00;4.00;;;;;26.52;100.00;100943.88;5043884;28;47233;-75
2022/06/29 04:48:55;;;;;;;;;9.33;8.00;;;;;27.15;100.00;100940.59;5068434;27;45727;-77
2022/06/29 04:51:21;;;;;;;;;4.33;3.33;;;;;27.82;100.00;100940.69;5063996;27;45526;-75
2022/06/29 04:53:47;;;;;;;;;3.00;3.00;;;;;28.48;100.00;100944.88;5073301;27;48229;-75
2022/06/29 04:56:14;;;;;;;;;2.00;2.00;;;;;29.14;98.34;100946.91;5065936;27;45896;-74
2022/06/29 04:58:40;;;;;;;;;9.00;8.00;;;;;29.66;94.18;100948.94;5057103;27;45369;-73
2022/06/29 05:01:06;;;;;;;;;5.33;4.00;;;;;30.18;90.07;100945.19;5041720;27;45611;-74
2022/06/29 05:03:31;;;;;;;;;10.33;6.00;;;;;30.74;86.13;100945.16;5044184;28;46845;-74
2022/06/29 05:05:57;;;;;;;;;7.33;5.00;;;;;31.21;82.30;100941.38;5054618;27;46768;-72
2022/06/29 05:08:22;;;;;;;;;8.33;4.00;;;;;31.82;78.71;100938.84;5054377;28;45723;-73
2022/06/29 05:10:48;;;;;;;;;7.00;6.00;;;;;32.33;74.54;100940.66;5063182;27;45778;-72
2022/06/29 05:13:13;;;;;;;;;3.33;3.00;;;;;32.85;70.46;100937.16;5065324;27;45721;-73
2022/06/29 05:15:39;;;;;;;;;4.00;4.00;;;;;33.41;66.75;100942.13;5061576;27;46623;-72
2022/06/29 05:18:05;;;;;;;;;4.00;3.00;;;;;33.84;61.50;100939.75;5062768;27;45552;-72
2022/06/29 05:20:31;;;;;;;;;4.00;2.00;;;;;34.16;58.68;100928.41;5064255;27;45602;-73
2022/06/29 05:22:56;;;;;;;;;5.00;4.00;;;;;34.63;53.78;100941.84;5062735;27;45660;-73
2022/06/29 05:25:22;;;;;;;;;2.33;2.33;;;;;34.94;51.56;100937.34;5062233;27;46233;-74
2022/06/29 05:27:47;;;;;;;;;5.00;5.00;;;;;35.12;50.15;100940.59;5070776;27;46037;-75
2022/06/29 05:30:14;;;;;;;;;5.00;4.00;;;;;35.28;48.07;100942.59;5076476;27;46007;-73
2022/06/29 05:32:39;;;;;;;;;2.00;2.00;;;;;35.55;46.74;100932.16;5070249;27;45587;-71
2022/06/29 05:35:06;;;;;;;;;3.00;3.00;;;;;35.91;43.99;100940.63;5070491;27;46060;-73
2022/06/29 05:37:32;;;;;;;;;5.33;3.33;;;;;36.35;42.04;100943.09;5044195;27;45511;-75
2022/06/29 05:39:58;;;;;;;;;5.00;2.00;;;;;36.79;38.83;100941.81;5059578;27;45529;-75
2022/06/29 05:42:23;;;;;;;;;3.67;2.67;;;;;37.16;36.52;100952.53;5059450;28;46132;-76
2022/06/29 05:44:49;;;;;;;;;3.00;3.00;;;;;37.55;33.69;100946.56;5068435;27;45962;-73
2022/06/29 05:47:15;;;;;;;;;2.67;2.67;;;;;37.82;31.92;100943.63;5064094;27;45406;-75
2022/06/29 05:49:41;;;;;;;;;3.00;3.00;;;;;38.20;31.70;100942.41;5065995;27;45719;-75
2022/06/29 05:52:07;;;;;;;;;2.67;1.00;;;;;38.69;30.70;100940.41;5062888;27;45885;-78
2022/06/29 05:54:33;;;;;;;;;2.00;2.00;;;;;39.02;28.75;100941.44;5059170;27;45580;-75
2022/06/29 05:56:58;;;;;;;;;2.33;2.33;;;;;39.48;28.04;100935.13;5061239;27;46000;-74
2022/06/29 05:59:24;;;;;;;;;3.00;1.00;;;;;39.89;28.02;100929.13;5042723;27;45546;-75
2022/06/29 06:01:49;;;;;;;;;1.50;1.50;;;;;40.38;26.53;100923.06;5058595;22;45791;-81
2022/06/29 06:04:18;;;;;;;;;1.00;1.00;;;;;40.52;25.69;100899.25;5028635;28;45723;-81
2022/06/29 06:06:44;;;;;;;;;1.33;1.33;;;;;40.94;25.05;100924.25;5026757;28;47151;-82
2022/06/29 06:09:10;;;;;;;;;2.00;1.00;;;;;41.27;24.74;100932.78;5031354;28;44917;-81
2022/06/29 06:11:36;;;;;;;;;3.00;2.00;;;;;41.56;24.55;100938.44;5015802;28;46517;-82
2022/06/29 06:14:02;;;;;;;;;2.00;2.00;;;;;41.69;23.89;100933.03;5033798;28;46094;-82
2022/06/29 06:16:28;;;;;;;;;5.33;4.33;;;;;41.87;23.71;100930.06;5001953;28;45426;-78
2022/06/29 06:18:53;;;;;;;;;1.00;1.00;;;;;42.22;23.68;100931.91;5020957;28;45876;-76
2022/06/29 06:21:19;;;;;;;;;2.33;1.00;;;;;42.65;23.24;100922.91;5027348;28;45871;-78
2022/06/29 06:23:45;;;;;;;;;1.00;1.00;;;;;43.16;22.94;100933.91;5031346;28;45323;-82
2022/06/29 06:26:29;;;;;;;;;1.33;1.00;;;;;43.57;22.05;100918.56;5040996;28;45451;-84
2022/06/29 06:36:07;;;;;;;;;;;;;;;;;;;;;
2022/06/29 06:41:52;;;;;;;;;3.00;1.00;;;;;46.59;18.73;100945.78;5022846;22;45346;-74
2022/06/29 06:44:18;;;;;;;;;2.00;2.00;;;;;47.01;18.24;100942.97;5012590;28;46128;-70
2022/06/29 06:46:48;;;;;;;;;1.00;1.00;;;;;47.39;17.60;100939.44;5028453;28;46718;-72
2022/06/29 06:49:22;;;;;;;;;1.00;1.00;;;;;47.73;17.13;100943.78;5033812;28;45501;-72
2022/06/29 06:51:49;;;;;;;;;2.00;2.00;;;;;48.08;16.86;100935.22;5022689;28;45583;-73
2022/06/29 06:54:14;;;;;;;;;2.00;2.00;;;;;48.52;16.57;100932.47;5016045;28;45732;-71
2022/06/29 06:56:40;;;;;;;;;1.00;0.33;;;;;48.85;16.09;100925.53;5030124;28;45432;-72
2022/06/29 06:59:05;;;;;;;;;1.33;1.00;;;;;49.25;15.92;100925.69;5034028;28;45329;-73
2022/06/29 07:01:30;;;;;;;;;2.00;1.00;;;;;49.64;15.77;100923.31;5012424;28;45979;-71
2022/06/29 07:03:56;;;;;;;;;2.00;1.00;;;;;50.07;15.19;100922.88;5023501;28;45488;-73
2022/06/29 07:06:21;;;;;;;;;1.00;1.00;;;;;50.46;14.85;100926.25;5022738;28;46246;-71
2022/06/29 07:08:47;;;;;;;;;1.00;1.00;;;;;50.79;14.32;100926.44;5024975;28;45770;-74
2022/06/29 07:11:13;;;;;;;;;1.67;1.00;;;;;51.16;14.51;100919.75;5021629;28;45431;-73
2022/06/29 07:13:38;;;;;;;;;1.33;0.67;;;;;51.51;14.08;100923.09;5011929;28;46207;-74
2022/06/29 07:16:05;;;;;;;;;0.67;0.00;;;;;51.78;13.91;100923.53;5028166;28;46430;-73
2022/06/29 07:18:31;;;;;;;;;1.00;1.00;;;;;52.06;13.63;100921.31;5024600;28;45829;-73
2022/06/29 07:20:57;;;;;;;;;1.33;1.33;;;;;52.20;13.45;100923.47;5032139;28;45603;-73
2022/06/29 07:23:23;;;;;;;;;0.33;0.33;;;;;52.60;12.94;100922.25;5023998;28;45525;-73
2022/06/29 07:25:48;;;;;;;;;0.00;0.00;;;;;52.67;12.55;100926.91;5029255;28;45620;-72
2022/06/29 07:28:14;;;;;;;;;2.00;1.00;;;;;52.89;13.04;100925.75;5028073;28;45371;-73
2022/06/29 07:30:39;;;;;;;;;1.00;1.00;;;;;53.06;12.28;100926.09;5031125;28;45663;-73
2022/06/29 07:33:05;;;;;;;;;1.00;1.00;;;;;53.34;13.01;100925.84;5008261;28;46510;-72
2022/06/29 07:35:31;;;;;;;;;1.00;1.00;;;;;53.49;12.35;100919.97;5030167;28;46162;-72
2022/06/29 07:37:56;;;;;;;;;1.00;1.00;;;;;53.33;12.02;100922.06;5026903;28;45367;-72
2022/06/29 07:40:22;;;;;;;;;2.00;1.00;;;;;53.35;12.09;100916.56;5011533;28;45718;-73
2022/06/29 07:42:48;;;;;;;;;5.00;5.00;;;;;53.47;12.16;100924.22;5016517;28;45589;-72
2022/06/29 07:45:13;;;;;;;;;1.33;1.00;;;;;53.74;11.98;100907.63;5033523;28;46311;-74
2022/06/29 07:47:39;;;;;;;;;0.00;0.00;;;;;54.05;11.85;100909.19;5028462;28;45268;-73
2022/06/29 07:50:05;;;;;;;;;0.00;0.00;;;;;54.31;11.92;100909.25;5019145;28;45634;-74
2022/06/29 07:52:33;;;;;;;;;1.00;1.00;;;;;54.48;11.33;100909.47;5027655;28;45844;-72
2022/06/29 07:55:02;;;;;;;;;0.67;0.67;;;;;54.13;11.39;100915.41;5024586;28;46105;-70
2022/06/29 07:57:28;;;;;;;;;1.00;0.00;;;;;53.78;11.98;100908.22;5031553;28;45737;-72
2022/06/29 07:59:53;;;;;;;;;1.00;1.00;;;;;53.92;11.80;100899.88;5029475;28;45640;-72
2022/06/29 08:02:18;;;;;;;;;2.00;0.00;;;;;53.94;11.54;100911.91;5004446;28;46087;-72
2022/06/29 08:04:44;;;;;;;;;1.00;0.00;;;;;53.88;11.33;100908.09;5022341;28;46403;-71
2022/06/29 08:07:09;;;;;;;;;2.33;0.00;;;;;53.61;11.48;100913.78;5028830;28;45465;-73
2022/06/29 08:09:35;;;;;;;;;0.33;0.00;;;;;53.74;11.73;100901.75;5007627;28;45449;-72
2022/06/29 08:12:01;;;;;;;;;1.00;1.00;;;;;53.70;11.38;100907.00;5011081;28;45481;-72
2022/06/29 08:14:26;;;;;;;;;2.00;1.00;;;;;53.65;11.38;100904.78;5004931;28;47009;-74
2022/06/29 08:16:51;;;;;;;;;0.67;0.00;;;;;53.75;11.59;100903.38;5024604;28;45611;-70
2022/06/29 08:19:17;;;;;;;;;1.00;1.00;;;;;53.89;11.82;100904.63;5023023;28;45800;-71
2022/06/29 08:21:42;;;;;;;;;0.00;0.00;;;;;54.03;11.58;100900.06;5022720;28;45940;-72
2022/06/29 08:24:08;;;;;;;;;2.00;0.00;;;;;54.31;11.34;100891.63;5030255;28;46131;-73
2022/06/29 08:26:33;;;;;;;;;0.00;0.00;;;;;54.08;11.79;100890.53;5026604;28;45761;-71
2022/06/29 08:28:59;;;;;;;;;1.00;1.00;;;;;54.16;11.69;100885.03;5002554;28;45872;-74
2022/06/29 08:31:24;;;;;;;;;1.00;1.00;;;;;54.10;11.17;100890.03;5028865;28;46603;-73
2022/06/29 08:33:50;;;;;;;;;0.00;0.00;;;;;54.18;11.86;100888.25;5021167;28;45461;-72
2022/06/29 08:36:15;;;;;;;;;0.00;0.00;;;;;54.39;12.01;100868.53;5027628;28;45778;-76
2022/06/29 08:38:41;;;;;;;;;2.33;1.00;;;;;54.60;11.35;100875.19;5025734;28;45644;-72
2022/06/29 08:41:07;;;;;;;;;0.00;0.00;;;;;54.95;11.16;100882.25;5005599;28;45998;-70
2022/06/29 08:43:33;;;;;;;;;0.33;0.33;;;;;55.08;10.87;100876.00;5016489;28;45612;-72
2022/06/29 08:45:58;;;;;;;;;2.00;1.00;;;;;55.01;11.06;100872.19;5032750;28;45753;-71
2022/06/29 08:48:24;;;;;;;;;0.00;0.00;;;;;54.63;11.01;100867.47;5008804;28;45855;-70
2022/06/29 08:50:54;;;;;;;;;1.00;1.00;;;;;54.57;11.56;100869.53;5020297;28;46285;-70
2022/06/29 08:53:21;;;;;;;;;1.00;1.00;;;;;54.47;11.17;100877.69;5016767;28;46165;-71
2022/06/29 08:55:51;;;;;;;;;0.00;0.00;;;;;54.75;10.88;100880.97;5027584;28;45901;-73
2022/06/29 08:58:25;;;;;;;;;0.00;0.00;;;;;55.04;10.67;100876.25;5013590;28;45880;-72
2022/06/29 09:00:51;;;;;;;;;1.00;1.00;;;;;53.68;11.41;100874.47;5019224;28;45760;-73
2022/06/29 09:03:19;;;;;;;;;0.00;0.00;;;;;53.17;11.73;100863.94;5027361;28;45657;-73
2022/06/29 09:05:50;;;;;;;;;0.00;0.00;;;;;53.39;11.06;100879.03;5027889;28;45429;-72
2022/06/29 09:08:16;;;;;;;;;1.00;1.00;;;;;53.38;10.84;100874.50;5021033;28;45855;-71
2022/06/29 09:10:42;;;;;;;;;1.00;1.00;;;;;53.21;12.03;100882.97;5018294;28;46126;-71
2022/06/29 09:13:08;;;;;;;;;0.00;0.00;;;;;53.24;11.67;100881.13;5024857;28;46184;-71
2022/06/29 09:15:35;;;;;;;;;0.67;0.67;;;;;52.93;11.64;100879.50;5027232;28;45766;-72
2022/06/29 09:18:02;;;;;;;;;1.00;1.00;;;;;52.91;12.01;100877.09;5021843;28;46140;-73
2022/06/29 09:20:41;;;;;;;;;1.00;1.00;;;;;52.69;12.25;100889.16;5024692;28;45547;-72
2022/06/29 09:23:09;;;;;;;;;1.00;1.00;;;;;52.64;11.49;100883.97;5022150;28;45714;-70
2022/06/29 09:25:39;;;;;;;;;0.33;0.33;;;;;52.66;11.59;100881.38;5025905;28;45810;-71
2022/06/29 09:28:20;;;;;;;;;0.00;0.00;;;;;52.75;11.37;100887.16;5024060;28;45874;-77
2022/06/29 09:30:45;;;;;;;;;0.00;0.00;;;;;53.25;10.84;100882.75;5030972;28;45516;-80
2022/06/29 09:33:11;;;;;;;;;1.00;1.00;;;;;53.65;10.34;100882.13;5035534;28;46557;-81
2022/06/29 09:35:38;;;;;;;;;1.00;0.00;;;;;53.60;10.96;100882.03;5015445;28;45841;-82
2022/06/29 09:38:33;;;;;;;;;1.00;1.00;;;;;53.22;11.12;100890.44;5027669;28;45429;-81
2022/06/29 09:41:05;;;;;;;;;1.00;0.00;;;;;52.38;11.02;100893.28;5005813;28;45527;-75
2022/06/29 09:43:32;;;;;;;;;1.00;1.00;;;;;51.68;11.32;100894.31;4975538;28;47024;-75
2022/06/29 09:45:57;;;;;;;;;0.67;0.67;;;;;51.72;11.46;100894.94;5003493;28;45785;-79
2022/06/29 09:48:25;;;;;;;;;1.00;1.00;;;;;51.69;11.63;100889.28;5000175;28;45782;-79
2022/06/29 09:50:55;;;;;;;;;1.00;1.00;;;;;51.98;11.31;100896.59;4998404;28;45440;-78
2022/06/29 09:53:44;;;;;;;;;0.00;0.00;;;;;52.05;11.41;100899.19;5002251;28;46449;-76
2022/06/29 09:56:15;;;;;;;;;1.67;0.00;;;;;52.12;11.23;100892.97;4986570;28;45791;-81
2022/06/29 09:58:45;;;;;;;;;1.00;1.00;;;;;51.87;11.18;100882.53;4988325;28;45823;-76
2022/06/29 10:03:56;;;;;;;;;0.67;0.67;;;;;51.90;12.21;100881.53;5000146;28;45753;-79
2022/06/29 10:06:23;;;;;;;;;2.00;0.33;;;;;52.15;11.60;100883.19;5012102;28;45694;-76
2022/06/29 10:08:49;;;;;;;;;1.00;1.00;;;;;52.48;10.99;100873.56;5012131;28;45309;-76
2022/06/29 10:14:44;;;;;;;;;1.67;0.00;;;;;53.46;10.78;100861.00;5004549;28;45962;-78
2022/06/29 10:17:39;;;;;;;;;0.00;0.00;;;;;53.08;10.45;100864.88;4981789;28;45676;-76
2022/06/29 10:20:23;;;;;;;;;0.00;0.00;;;;;52.43;11.33;100868.38;5003484;28;45840;-76
2022/06/29 10:22:48;;;;;;;;;0.00;0.00;;;;;52.27;11.28;100863.78;5010637;28;45796;-75
2022/06/29 10:25:15;;;;;;;;;2.33;1.33;;;;;52.18;11.19;100872.59;5012878;28;45953;-76
2022/06/29 10:28:16;;;;;;;;;0.33;0.33;;;;;52.07;11.06;100862.28;5009671;28;45824;-75
2022/06/29 10:30:43;;;;;;;;;0.67;0.67;;;;;52.28;11.17;100852.84;4999016;28;45616;-75
2022/06/29 10:33:37;;;;;;;;;1.00;0.00;;;;;52.38;10.91;100851.50;5003456;28;46008;-74
2022/06/29 10:36:08;;;;;;;;;1.00;1.00;;;;;52.78;11.14;100851.00;5005565;28;46049;-71
2022/06/29 10:38:54;;;;;;;;;0.00;0.00;;;;;52.62;10.93;100847.72;5006593;28;45311;-72
2022/06/29 10:44:05;;;;;;;;;1.00;1.00;;;;;51.81;11.23;100846.50;5026359;28;45539;-73
2022/06/29 10:46:57;;;;;;;;;1.00;1.00;;;;;52.32;11.24;100838.84;5028764;28;45618;-72
2022/06/29 10:49:23;;;;;;;;;1.33;0.33;;;;;52.34;11.01;100837.03;5024127;28;45475;-72
2022/06/29 10:51:49;;;;;;;;;0.00;0.00;;;;;51.78;10.82;100832.88;5021265;28;45921;-71
2022/06/29 10:54:30;;;;;;;;;0.67;0.00;;;;;50.79;11.33;100829.25;5023030;28;45523;-73
2022/06/29 10:56:55;;;;;;;;;0.00;0.00;;;;;50.03;11.66;100823.84;5025863;28;45449;-70
2022/06/29 10:59:39;;;;;;;;;2.00;1.67;;;;;50.30;12.13;100825.19;5034248;28;45718;-73
2022/06/29 11:02:13;;;;;;;;;0.33;0.33;;;;;50.67;11.54;100823.09;5033832;28;45484;-71
2022/06/29 11:04:40;;;;;;;;;0.67;0.67;;;;;50.83;11.44;100835.72;5024500;28;45457;-72
2022/06/29 11:12:49;;;;;;;;;0.00;0.00;;;;;50.50;12.11;100819.69;5020407;28;45639;-73
2022/06/29 11:15:44;;;;;;;;;1.00;1.00;;;;;50.20;12.17;100812.66;5023275;28;46554;-72
2022/06/29 11:18:12;;;;;;;;;0.00;0.00;;;;;49.32;12.41;100813.88;5025722;28;47841;-71
2022/06/29 11:20:38;;;;;;;;;0.33;0.33;;;;;48.08;12.70;100815.97;5022052;28;45592;-72
2022/06/29 11:23:15;;;;;;;;;2.00;0.33;;;;;46.25;13.48;100811.56;5028050;28;45775;-71
2022/06/29 11:25:44;;;;;;;;;0.33;0.00;;;;;44.86;14.32;100794.13;5030527;28;45806;-72
2022/06/29 11:28:10;;;;;;;;;2.00;1.00;;;;;43.14;16.13;100813.13;5031840;28;45390;-71
2022/06/29 11:30:37;;;;;;;;;0.00;0.00;;;;;41.74;16.38;100811.66;5029834;28;45710;-71
2022/06/29 11:33:10;;;;;;;;;0.33;0.33;;;;;40.69;17.63;100811.31;5013426;28;45481;-71
2022/06/29 11:35:38;;;;;;;;;1.00;1.00;;;;;39.77;17.63;100805.22;5029151;28;45681;-71
2022/06/29 11:38:05;;;;;;;;;0.00;0.00;;;;;38.83;18.35;100814.31;5029688;28;46542;-72
2022/06/29 11:40:41;;;;;;;;;0.00;0.00;;;;;37.53;19.33;100800.19;5028438;28;45785;-72
2022/06/29 11:43:15;;;;;;;;;2.00;1.00;;;;;36.50;20.55;100801.31;5026422;28;45504;-72
2022/06/29 11:45:44;;;;;;;;;0.00;0.00;;;;;35.54;22.02;100807.81;5033152;28;45607;-71
2022/06/29 11:48:21;;;;;;;;;5.67;2.33;;;;;34.85;23.20;100802.75;5032180;28;46279;-69
2022/06/29 11:50:53;;;;;;;;;1.00;1.00;;;;;34.36;24.47;100806.94;5030596;28;45535;-70